createdAt,value
2017-10-11T00:00:11.555Z,946.3
2017-10-11T00:01:19.582Z,946.3
2017-10-11T00:02:27.672Z,946.3
2017-10-11T00:03:35.759Z,946.3
2017-10-11T00:04:44.128Z,946.3
2017-10-11T00:05:51.934Z,946.3
2017-10-11T00:07:00.021Z,946.3
2017-10-11T00:08:08.109Z,946.3
2017-10-11T00:09:16.356Z,946.3
2017-10-11T00:10:24.463Z,946.3
2017-10-11T00:11:32.493Z,946.3
2017-10-11T00:12:40.463Z,946.3
2017-10-11T00:13:48.604Z,946.3
2017-10-11T00:14:56.632Z,946.3
2017-10-11T00:16:04.778Z,946.3
2017-10-11T00:17:12.817Z,946.3
2017-10-11T00:18:20.907Z,946.3
2017-10-11T00:19:28.993Z,946.3
2017-10-11T00:20:37.086Z,946.3
2017-10-11T00:21:45.294Z,946.3
2017-10-11T00:22:53.266Z,946.3
2017-10-11T00:24:01.355Z,946.3
2017-10-11T00:25:09.451Z,946.3
2017-10-11T00:26:17.540Z,946.3
2017-10-11T00:27:25.746Z,946.3
2017-10-11T00:28:33.715Z,946.3
2017-10-11T00:29:41.801Z,946.3
2017-10-11T00:30:49.889Z,946.3
2017-10-11T00:31:58.071Z,946.3
2017-10-11T00:33:06.254Z,946.3
2017-10-11T00:34:14.153Z,946.3
2017-10-11T00:35:22.246Z,946.3
2017-10-11T00:36:30.329Z,946.3
2017-10-11T00:37:38.423Z,946.3
2017-10-11T00:38:46.559Z,946.3
2017-10-11T00:39:54.590Z,946.3
2017-10-11T00:41:02.680Z,946.3
2017-10-11T00:42:10.766Z,946.3
2017-10-11T00:43:18.984Z,946.3
2017-10-11T00:44:27.083Z,946.3
2017-10-11T00:45:35.048Z,946.3
2017-10-11T00:46:43.139Z,946.2
2017-10-11T00:47:51.226Z,946.2
2017-10-11T00:48:59.314Z,946.2
2017-10-11T00:50:07.575Z,946.2
2017-10-11T00:51:15.606Z,946.2
2017-10-11T00:52:23.696Z,946.2
2017-10-11T00:53:31.784Z,946.2
2017-10-11T00:54:39.916Z,946.2
2017-10-11T00:55:48.084Z,946.2
2017-10-11T00:56:56.045Z,946.2
2017-10-11T00:58:04.133Z,946.2
2017-10-11T00:59:12.414Z,946.2
2017-10-11T01:00:20.384Z,946.2
2017-10-11T01:01:28.454Z,946.2
2017-10-11T01:02:36.487Z,946.2
2017-10-11T01:03:44.575Z,946.2
2017-10-11T01:04:52.659Z,946.2
2017-10-11T01:06:00.747Z,946.1
2017-10-11T01:07:08.892Z,946.2
2017-10-11T01:08:16.924Z,946.2
2017-10-11T01:09:25.013Z,946.2
2017-10-11T01:10:33.099Z,946.2
2017-10-11T01:11:41.192Z,946.2
2017-10-11T01:12:49.400Z,946.2
2017-10-11T01:13:57.364Z,946.2
2017-10-11T01:15:05.522Z,946.2
2017-10-11T01:16:13.537Z,946.2
2017-10-11T01:17:21.622Z,946.2
2017-10-11T01:18:29.947Z,946.3
2017-10-11T01:19:37.801Z,946.3
2017-10-11T01:20:45.887Z,946.2
2017-10-11T01:21:53.977Z,946.3
2017-10-11T01:23:02.072Z,946.3
2017-10-11T01:24:10.290Z,946.3
2017-10-11T01:25:18.258Z,946.3
2017-10-11T01:26:26.347Z,946.2
2017-10-11T01:27:34.435Z,946.3
2017-10-11T01:28:42.523Z,946.2
2017-10-11T01:29:50.730Z,946.2
2017-10-11T01:30:58.772Z,946.3
2017-10-11T01:32:06.793Z,946.3
2017-10-11T01:33:14.879Z,946.3
2017-10-11T01:34:22.970Z,946.3
2017-10-11T01:35:31.114Z,946.3
2017-10-11T01:36:39.202Z,946.3
2017-10-11T01:37:47.234Z,946.3
2017-10-11T01:38:55.318Z,946.3
2017-10-11T01:40:03.406Z,946.3
2017-10-11T01:41:11.618Z,946.2
2017-10-11T01:42:19.583Z,946.2
2017-10-11T01:43:27.671Z,946.2
2017-10-11T01:44:35.761Z,946.2
2017-10-11T01:45:43.875Z,946.2
2017-10-11T01:46:51.990Z,946.3
2017-10-11T01:48:00.023Z,946.2
2017-10-11T01:49:08.289Z,946.2
2017-10-11T01:50:16.316Z,946.2
2017-10-11T01:51:24.285Z,946.2
2017-10-11T01:52:32.496Z,946.2
2017-10-11T01:53:40.463Z,946.2
2017-10-11T01:54:48.559Z,946.2
2017-10-11T01:55:56.644Z,946.3
2017-10-11T01:57:04.734Z,946.2
2017-10-11T01:58:12.867Z,946.2
2017-10-11T01:59:21.022Z,946.2
2017-10-11T02:00:28.988Z,946.2
2017-10-11T02:01:37.075Z,946.2
2017-10-11T02:02:45.221Z,946.2
2017-10-11T02:03:53.505Z,946.2
2017-10-11T02:05:01.334Z,946.2
2017-10-11T02:06:09.428Z,946.2
2017-10-11T02:07:17.514Z,946.2
2017-10-11T02:08:25.601Z,946.2
2017-10-11T02:09:33.746Z,946.2
2017-10-11T02:10:41.784Z,946.2
2017-10-11T02:11:49.872Z,946.2
2017-10-11T02:12:58.085Z,946.2
2017-10-11T02:14:06.048Z,946.2
2017-10-11T02:15:14.191Z,946.2
2017-10-11T02:16:22.222Z,946.2
2017-10-11T02:17:30.309Z,946.2
2017-10-11T02:18:38.518Z,946.1
2017-10-11T02:19:46.488Z,946.2
2017-10-11T02:20:54.630Z,946.2
2017-10-11T02:22:02.860Z,946.1
2017-10-11T02:23:10.759Z,946.1
2017-10-11T02:24:18.843Z,946.1
2017-10-11T02:25:26.931Z,946.1
2017-10-11T02:26:35.077Z,946.1
2017-10-11T02:27:43.114Z,946.1
2017-10-11T02:28:51.204Z,946.1
2017-10-11T02:29:59.283Z,946.1
2017-10-11T02:31:07.537Z,946.1
2017-10-11T02:32:15.602Z,946.1
2017-10-11T02:33:23.543Z,946.1
2017-10-11T02:34:31.690Z,946.1
2017-10-11T02:35:39.720Z,946.1
2017-10-11T02:36:47.808Z,946.1
2017-10-11T02:37:55.951Z,946.1
2017-10-11T02:39:03.983Z,946.0
2017-10-11T02:40:12.142Z,946.1
2017-10-11T02:41:20.168Z,946.1
2017-10-11T02:42:28.244Z,946.1
2017-10-11T02:43:36.388Z,946.0
2017-10-11T02:44:44.609Z,946.0
2017-10-11T02:45:52.514Z,946.0
2017-10-11T02:47:00.604Z,946.0
2017-10-11T02:48:08.699Z,946.0
2017-10-11T02:49:16.835Z,946.0
2017-10-11T02:50:24.918Z,946.0
2017-10-11T02:51:32.960Z,946.0
2017-10-11T02:52:41.059Z,946.0
2017-10-11T02:53:49.144Z,946.0
2017-10-11T02:54:57.442Z,946.0
2017-10-11T02:56:05.317Z,946.0
2017-10-11T02:57:13.413Z,946.0
2017-10-11T02:58:21.490Z,946.0
2017-10-11T02:59:29.581Z,946.0
2017-10-11T03:00:37.786Z,946.0
2017-10-11T03:01:45.756Z,946.0
2017-10-11T03:02:53.840Z,946.1
2017-10-11T03:04:02.002Z,946.1
2017-10-11T03:05:10.016Z,946.0
2017-10-11T03:06:18.158Z,946.1
2017-10-11T03:07:26.189Z,946.1
2017-10-11T03:08:34.344Z,946.1
2017-10-11T03:09:42.365Z,946.1
2017-10-11T03:10:50.455Z,946.1
2017-10-11T03:11:58.663Z,946.1
2017-10-11T03:13:06.637Z,946.1
2017-10-11T03:14:14.724Z,946.1
2017-10-11T03:15:22.808Z,946.1
2017-10-11T03:16:31.068Z,946.1
2017-10-11T03:17:39.213Z,946.1
2017-10-11T03:18:47.253Z,946.1
2017-10-11T03:19:55.339Z,946.1
2017-10-11T03:21:03.577Z,946.1
2017-10-11T03:22:11.580Z,946.1
2017-10-11T03:23:19.736Z,946.1
2017-10-11T03:24:27.702Z,946.1
2017-10-11T03:25:35.904Z,946.1
2017-10-11T03:26:43.878Z,946.1
2017-10-11T03:27:51.968Z,946.1
2017-10-11T03:29:00.126Z,946.0
2017-10-11T03:30:08.164Z,946.1
2017-10-11T03:31:16.247Z,946.1
2017-10-11T03:32:24.333Z,946.0
2017-10-11T03:33:32.419Z,946.1
2017-10-11T03:34:40.627Z,946.1
2017-10-11T03:35:48.594Z,946.1
2017-10-11T03:36:56.683Z,946.1
2017-10-11T03:38:04.826Z,946.1
2017-10-11T03:39:12.857Z,946.1
2017-10-11T03:40:21.213Z,946.1
2017-10-11T03:41:29.037Z,946.1
2017-10-11T03:42:37.123Z,946.1
2017-10-11T03:43:45.204Z,946.1
2017-10-11T03:44:53.437Z,946.1
2017-10-11T03:46:01.503Z,946.1
2017-10-11T03:47:09.470Z,946.2
2017-10-11T03:48:17.556Z,946.2
2017-10-11T03:49:25.643Z,946.2
2017-10-11T03:50:33.731Z,946.1
2017-10-11T03:51:41.885Z,946.2
2017-10-11T03:52:49.910Z,946.2
2017-10-11T03:53:58.135Z,946.2
2017-10-11T03:55:06.091Z,946.2
2017-10-11T03:56:14.176Z,946.1
2017-10-11T03:57:22.380Z,946.1
2017-10-11T03:58:30.365Z,946.1
2017-10-11T03:59:38.433Z,946.1
2017-10-11T04:00:46.520Z,946.1
2017-10-11T04:01:54.651Z,946.1
2017-10-11T04:03:02.758Z,946.1
2017-10-11T04:04:10.782Z,946.2
2017-10-11T04:05:18.868Z,946.1
2017-10-11T04:06:26.953Z,946.1
2017-10-11T04:07:35.056Z,946.1
2017-10-11T04:08:43.249Z,946.1
2017-10-11T04:09:51.332Z,946.1
2017-10-11T04:10:59.299Z,946.1
2017-10-11T04:12:07.418Z,946.1
2017-10-11T04:13:16.768Z,946.1
2017-10-11T04:14:23.616Z,946.1
2017-10-11T04:15:31.648Z,946.2
2017-10-11T04:16:39.735Z,946.1
2017-10-11T04:17:47.827Z,946.1
2017-10-11T04:18:55.913Z,946.1
2017-10-11T04:20:04.049Z,946.1
2017-10-11T04:21:12.200Z,946.1
2017-10-11T04:22:20.166Z,946.1
2017-10-11T04:23:28.386Z,946.1
2017-10-11T04:24:36.338Z,946.1
2017-10-11T04:25:45.298Z,946.1
2017-10-11T04:26:53.149Z,946.1
2017-10-11T04:28:00.695Z,946.1
2017-10-11T04:29:08.754Z,946.1
2017-10-11T04:30:16.909Z,946.1
2017-10-11T04:31:25.197Z,946.1
2017-10-11T04:32:32.966Z,946.1
2017-10-11T04:33:41.052Z,946.1
2017-10-11T04:34:49.144Z,946.1
2017-10-11T04:35:57.225Z,946.1
2017-10-11T04:37:05.432Z,946.1
2017-10-11T04:38:13.414Z,946.1
2017-10-11T04:39:21.584Z,946.1
2017-10-11T04:40:29.578Z,946.1
2017-10-11T04:41:37.778Z,946.2
2017-10-11T04:42:45.806Z,946.1
2017-10-11T04:43:53.836Z,946.2
2017-10-11T04:45:01.927Z,946.1
2017-10-11T04:46:10.013Z,946.2
2017-10-11T04:47:18.102Z,946.2
2017-10-11T04:48:26.250Z,946.2
2017-10-11T04:49:34.293Z,946.2
2017-10-11T04:50:42.654Z,946.2
2017-10-11T04:51:50.451Z,946.2
2017-10-11T04:52:58.531Z,946.2
2017-10-11T04:54:06.738Z,946.2
2017-10-11T04:55:14.703Z,946.2
2017-10-11T04:56:22.789Z,946.2
2017-10-11T04:57:31.694Z,946.2
2017-10-11T04:58:39.129Z,946.1
2017-10-11T04:59:47.177Z,946.1
2017-10-11T05:00:55.143Z,946.1
2017-10-11T05:02:03.229Z,946.1
2017-10-11T05:03:11.472Z,946.1
2017-10-11T05:04:19.401Z,946.1
2017-10-11T05:05:27.545Z,946.1
2017-10-11T05:06:35.576Z,946.1
2017-10-11T05:07:43.709Z,946.0
2017-10-11T05:08:51.749Z,946.0
2017-10-11T05:09:59.834Z,946.1
2017-10-11T05:11:08.041Z,946.0
2017-10-11T05:12:16.011Z,946.0
2017-10-11T05:13:24.150Z,946.1
2017-10-11T05:14:32.180Z,946.1
2017-10-11T05:15:40.266Z,946.0
2017-10-11T05:16:48.478Z,946.1
2017-10-11T05:17:56.445Z,946.0
2017-10-11T05:19:04.525Z,946.1
2017-10-11T05:20:12.610Z,946.0
2017-10-11T05:21:20.696Z,946.1
2017-10-11T05:22:28.837Z,946.0
2017-10-11T05:23:36.875Z,946.0
2017-10-11T05:24:44.968Z,946.0
2017-10-11T05:25:53.056Z,946.0
2017-10-11T05:27:01.145Z,946.0
2017-10-11T05:28:09.348Z,946.0
2017-10-11T05:29:17.369Z,946.0
2017-10-11T05:30:25.623Z,946.0
2017-10-11T05:31:33.526Z,946.0
2017-10-11T05:32:41.618Z,946.0
2017-10-11T05:33:49.828Z,946.0
2017-10-11T05:34:57.984Z,946.0
2017-10-11T05:36:05.884Z,946.0
2017-10-11T05:37:13.979Z,946.0
2017-10-11T05:38:22.065Z,946.0
2017-10-11T05:39:30.208Z,946.0
2017-10-11T05:40:38.278Z,946.1
2017-10-11T05:41:46.325Z,946.0
2017-10-11T05:42:54.415Z,946.0
2017-10-11T05:44:02.488Z,946.0
2017-10-11T05:45:10.707Z,946.1
2017-10-11T05:46:18.675Z,946.1
2017-10-11T05:47:26.761Z,946.1
2017-10-11T05:48:34.852Z,946.1
2017-10-11T05:49:42.956Z,946.1
2017-10-11T05:50:51.091Z,946.1
2017-10-11T05:51:59.113Z,946.1
2017-10-11T05:53:07.373Z,946.1
2017-10-11T05:54:15.287Z,946.1
2017-10-11T05:55:23.378Z,946.1
2017-10-11T05:56:31.582Z,946.2
2017-10-11T05:57:39.607Z,946.2
2017-10-11T05:58:47.634Z,946.2
2017-10-11T05:59:55.726Z,946.2
2017-10-11T06:01:03.881Z,946.3
2017-10-11T06:02:12.186Z,946.3
2017-10-11T06:03:19.997Z,946.3
2017-10-11T06:04:28.082Z,946.3
2017-10-11T06:05:36.165Z,946.4
2017-10-11T06:06:44.421Z,946.4
2017-10-11T06:07:52.519Z,946.4
2017-10-11T06:09:00.422Z,946.4
2017-10-11T06:10:08.509Z,946.4
2017-10-11T06:11:16.595Z,946.4
2017-10-11T06:12:24.879Z,946.5
2017-10-11T06:13:32.894Z,946.5
2017-10-11T06:14:40.853Z,946.5
2017-10-11T06:15:48.950Z,946.4
2017-10-11T06:16:57.203Z,946.5
2017-10-11T06:18:05.115Z,946.5
2017-10-11T06:19:13.258Z,946.5
2017-10-11T06:20:21.285Z,946.5
2017-10-11T06:21:29.492Z,946.5
2017-10-11T06:22:37.458Z,946.5
2017-10-11T06:23:45.545Z,946.5
2017-10-11T06:24:55.134Z,946.5
2017-10-11T06:26:02.173Z,946.5
2017-10-11T06:27:10.266Z,946.5
2017-10-11T06:28:18.354Z,946.5
2017-10-11T06:29:26.541Z,946.5
2017-10-11T06:30:34.647Z,946.5
2017-10-11T06:31:42.614Z,946.5
2017-10-11T06:32:50.905Z,946.5
2017-10-11T06:33:58.784Z,946.4
2017-10-11T06:35:06.876Z,946.4
2017-10-11T06:36:15.020Z,946.4
2017-10-11T06:37:23.140Z,946.4
2017-10-11T06:38:31.132Z,946.4
2017-10-11T06:39:39.223Z,946.4
2017-10-11T06:40:47.314Z,946.5
2017-10-11T06:41:55.511Z,946.5
2017-10-11T06:43:03.481Z,946.5
2017-10-11T06:44:11.561Z,946.5
2017-10-11T06:45:19.647Z,946.5
2017-10-11T06:46:27.731Z,946.5
2017-10-11T06:47:35.893Z,946.5
2017-10-11T06:48:44.023Z,946.5
2017-10-11T06:49:51.990Z,946.5
2017-10-11T06:51:00.077Z,946.5
2017-10-11T06:52:08.174Z,946.5
2017-10-11T06:53:16.374Z,946.5
2017-10-11T06:54:24.333Z,946.6
2017-10-11T06:55:32.419Z,946.6
2017-10-11T06:56:40.635Z,946.6
2017-10-11T06:57:48.592Z,946.5
2017-10-11T06:58:56.736Z,946.5
2017-10-11T07:00:04.765Z,946.5
2017-10-11T07:01:12.960Z,946.5
2017-10-11T07:02:20.937Z,946.6
2017-10-11T07:03:29.021Z,946.6
2017-10-11T07:04:37.233Z,946.5
2017-10-11T07:05:45.305Z,946.5
2017-10-11T07:06:53.282Z,946.6
2017-10-11T07:08:01.377Z,946.5
2017-10-11T07:09:09.460Z,946.5
2017-10-11T07:10:17.666Z,946.5
2017-10-11T07:11:25.631Z,946.5
2017-10-11T07:12:33.714Z,946.5
2017-10-11T07:13:41.811Z,946.5
2017-10-11T07:14:49.897Z,946.5
2017-10-11T07:15:58.040Z,946.5
2017-10-11T07:17:06.070Z,946.5
2017-10-11T07:18:14.155Z,946.5
2017-10-11T07:19:22.338Z,946.5
2017-10-11T07:20:30.472Z,946.5
2017-10-11T07:21:38.566Z,946.5
2017-10-11T07:22:46.497Z,946.5
2017-10-11T07:23:54.583Z,946.5
2017-10-11T07:25:02.669Z,946.5
2017-10-11T07:26:10.756Z,946.5
2017-10-11T07:27:18.895Z,946.5
2017-10-11T07:28:26.924Z,946.5
2017-10-11T07:29:35.012Z,946.5
2017-10-11T07:30:43.095Z,946.5
2017-10-11T07:31:51.183Z,946.5
2017-10-11T07:32:59.327Z,946.5
2017-10-11T07:34:07.356Z,946.5
2017-10-11T07:35:15.584Z,946.6
2017-10-11T07:36:23.726Z,946.6
2017-10-11T07:37:31.894Z,946.6
2017-10-11T07:38:39.966Z,946.6
2017-10-11T07:39:47.928Z,946.6
2017-10-11T07:40:56.012Z,946.6
2017-10-11T07:42:04.251Z,946.6
2017-10-11T07:43:12.184Z,946.7
2017-10-11T07:44:20.326Z,946.7
2017-10-11T07:45:28.360Z,946.7
2017-10-11T07:46:36.442Z,946.7
2017-10-11T07:47:44.527Z,946.8
2017-10-11T07:48:52.612Z,946.8
2017-10-11T07:50:00.812Z,946.8
2017-10-11T07:51:09.135Z,946.8
2017-10-11T07:52:16.925Z,946.7
2017-10-11T07:53:24.956Z,946.8
2017-10-11T07:54:33.062Z,946.8
2017-10-11T07:55:41.352Z,946.8
2017-10-11T07:56:49.229Z,946.8
2017-10-11T07:57:57.350Z,946.8
2017-10-11T07:59:05.402Z,946.8
2017-10-11T08:00:13.629Z,946.8
2017-10-11T08:01:21.694Z,946.8
2017-10-11T08:02:29.661Z,946.8
2017-10-11T08:03:37.743Z,946.8
2017-10-11T08:04:45.833Z,946.8
2017-10-11T08:05:53.916Z,946.8
2017-10-11T08:07:02.121Z,946.8
2017-10-11T08:08:10.206Z,946.8
2017-10-11T08:09:18.173Z,946.8
2017-10-11T08:10:26.263Z,946.8
2017-10-11T08:11:34.361Z,946.8
2017-10-11T08:12:42.504Z,946.8
2017-10-11T08:13:50.534Z,946.8
2017-10-11T08:14:58.648Z,946.8
2017-10-11T08:16:06.721Z,946.8
2017-10-11T08:17:14.807Z,946.8
2017-10-11T08:18:22.953Z,946.8
2017-10-11T08:19:31.078Z,946.8
2017-10-11T08:20:39.185Z,946.8
2017-10-11T08:21:47.148Z,946.7
2017-10-11T08:22:55.237Z,946.7
2017-10-11T08:24:03.561Z,946.7
2017-10-11T08:25:11.407Z,946.7
2017-10-11T08:26:19.495Z,946.7
2017-10-11T08:27:27.579Z,946.7
2017-10-11T08:28:35.665Z,946.7
2017-10-11T08:29:43.827Z,946.7
2017-10-11T08:30:51.838Z,946.7
2017-10-11T08:31:59.921Z,946.7
2017-10-11T08:33:08.090Z,946.7
2017-10-11T08:34:16.094Z,946.7
2017-10-11T08:35:24.236Z,946.7
2017-10-11T08:36:32.265Z,946.7
2017-10-11T08:37:40.351Z,946.7
2017-10-11T08:38:48.436Z,946.7
2017-10-11T08:39:56.642Z,946.7
2017-10-11T08:41:04.675Z,946.7
2017-10-11T08:42:12.712Z,946.7
2017-10-11T08:43:20.919Z,946.6
2017-10-11T08:44:28.885Z,946.7
2017-10-11T08:45:36.967Z,946.7
2017-10-11T08:46:45.197Z,946.7
2017-10-11T08:47:53.134Z,946.7
2017-10-11T08:49:01.220Z,946.7
2017-10-11T08:50:09.304Z,946.7
2017-10-11T08:51:17.576Z,946.7
2017-10-11T08:52:25.724Z,946.7
2017-10-11T08:53:33.565Z,946.7
2017-10-11T08:54:41.650Z,946.7
2017-10-11T08:55:49.959Z,946.7
2017-10-11T08:56:57.824Z,946.7
2017-10-11T08:58:05.963Z,946.7
2017-10-11T08:59:14.002Z,946.7
2017-10-11T09:00:22.083Z,946.7
2017-10-11T09:01:30.201Z,946.7
2017-10-11T09:02:38.257Z,946.7
2017-10-11T09:03:46.462Z,946.7
2017-10-11T09:04:54.431Z,946.7
2017-10-11T09:06:02.513Z,946.7
2017-10-11T09:07:10.599Z,946.7
2017-10-11T09:08:18.687Z,946.7
2017-10-11T09:09:26.829Z,946.7
2017-10-11T09:10:34.998Z,946.7
2017-10-11T09:11:43.158Z,946.7
2017-10-11T09:12:51.033Z,946.7
2017-10-11T09:13:59.115Z,946.6
2017-10-11T09:15:07.287Z,946.7
2017-10-11T09:16:15.287Z,946.7
2017-10-11T09:17:23.375Z,946.7
2017-10-11T09:18:31.465Z,946.6
2017-10-11T09:19:39.544Z,946.6
2017-10-11T09:20:47.688Z,946.6
2017-10-11T09:21:55.718Z,946.6
2017-10-11T09:23:03.802Z,946.6
2017-10-11T09:24:11.931Z,946.6
2017-10-11T09:25:19.974Z,946.6
2017-10-11T09:26:28.181Z,946.6
2017-10-11T09:27:36.203Z,946.6
2017-10-11T09:28:44.230Z,946.6
2017-10-11T09:29:52.330Z,946.6
2017-10-11T09:31:00.413Z,946.6
2017-10-11T09:32:08.555Z,946.6
2017-10-11T09:33:16.594Z,946.6
2017-10-11T09:34:24.680Z,946.6
2017-10-11T09:35:32.770Z,946.6
2017-10-11T09:36:40.853Z,946.6
2017-10-11T09:37:49.039Z,946.6
2017-10-11T09:38:57.024Z,946.6
2017-10-11T09:40:05.110Z,946.6
2017-10-11T09:41:13.199Z,946.6
2017-10-11T09:42:21.415Z,946.6
2017-10-11T09:43:29.428Z,946.5
2017-10-11T09:44:37.450Z,946.5
2017-10-11T09:45:45.537Z,946.5
2017-10-11T09:46:53.649Z,946.5
2017-10-11T09:48:01.711Z,946.5
2017-10-11T09:49:09.854Z,946.5
2017-10-11T09:50:17.880Z,946.5
2017-10-11T09:51:25.972Z,946.5
2017-10-11T09:52:34.379Z,946.5
2017-10-11T09:53:42.466Z,946.5
2017-10-11T09:54:50.609Z,946.5
2017-10-11T09:55:58.637Z,946.5
2017-10-11T09:57:06.724Z,946.5
2017-10-11T09:58:14.810Z,946.5
2017-10-11T09:59:23.095Z,946.5
2017-10-11T10:00:31.184Z,946.5
2017-10-11T10:01:39.074Z,946.5
2017-10-11T10:02:47.162Z,946.5
2017-10-11T10:03:55.292Z,946.4
2017-10-11T10:05:03.332Z,946.4
2017-10-11T10:06:11.473Z,946.5
2017-10-11T10:07:19.505Z,946.5
2017-10-11T10:08:27.591Z,946.4
2017-10-11T10:09:35.675Z,946.4
2017-10-11T10:10:43.763Z,946.4
2017-10-11T10:11:51.908Z,946.4
2017-10-11T10:13:00.095Z,946.4
2017-10-11T10:14:08.028Z,946.4
2017-10-11T10:15:16.227Z,946.4
2017-10-11T10:16:24.193Z,946.4
2017-10-11T10:17:32.335Z,946.4
2017-10-11T10:18:40.366Z,946.4
2017-10-11T10:19:48.452Z,946.4
2017-10-11T10:20:56.538Z,946.4
2017-10-11T10:22:04.625Z,946.4
2017-10-11T10:23:12.772Z,946.4
2017-10-11T10:24:20.799Z,946.3
2017-10-11T10:25:28.886Z,946.3
2017-10-11T10:26:36.971Z,946.3
2017-10-11T10:27:45.138Z,946.2
2017-10-11T10:28:53.267Z,946.3
2017-10-11T10:31:09.373Z,946.3
2017-10-11T10:32:17.491Z,946.3
2017-10-11T10:33:25.489Z,946.3
2017-10-11T10:34:33.631Z,946.3
2017-10-11T10:35:41.659Z,946.3
2017-10-11T10:36:49.752Z,946.3
2017-10-11T10:37:57.841Z,946.3
2017-10-11T10:39:05.925Z,946.3
2017-10-11T10:40:14.068Z,946.3
2017-10-11T10:41:22.129Z,946.3
2017-10-11T10:42:30.211Z,946.3
2017-10-11T10:43:38.283Z,946.3
2017-10-11T10:44:46.366Z,946.3
2017-10-11T10:45:54.744Z,946.3
2017-10-11T10:47:02.595Z,946.3
2017-10-11T10:48:10.633Z,946.3
2017-10-11T10:49:18.720Z,946.2
2017-10-11T10:50:26.805Z,946.2
2017-10-11T10:51:34.949Z,946.2
2017-10-11T10:52:42.985Z,946.2
2017-10-11T10:53:51.069Z,946.2
2017-10-11T10:54:59.160Z,946.2
2017-10-11T10:56:07.237Z,946.2
2017-10-11T10:57:15.443Z,946.2
2017-10-11T10:58:23.410Z,946.2
2017-10-11T10:59:31.494Z,946.2
2017-10-11T11:00:39.585Z,946.2
2017-10-11T11:01:47.680Z,946.2
2017-10-11T11:02:56.024Z,946.2
2017-10-11T11:04:03.869Z,946.2
2017-10-11T11:05:12.152Z,946.2
2017-10-11T11:06:20.039Z,946.2
2017-10-11T11:07:28.127Z,946.2
2017-10-11T11:08:36.390Z,946.1
2017-10-11T11:09:44.749Z,946.2
2017-10-11T11:10:52.897Z,946.1
2017-10-11T11:12:00.969Z,946.1
2017-10-11T11:13:09.056Z,946.0
2017-10-11T11:14:17.197Z,946.0
2017-10-11T11:15:25.226Z,946.0
2017-10-11T11:16:33.426Z,946.0
2017-10-11T11:17:41.400Z,946.0
2017-10-11T11:18:49.540Z,946.0
2017-10-11T11:19:57.671Z,945.9
2017-10-11T11:21:05.657Z,946.0
2017-10-11T11:22:13.744Z,945.9
2017-10-11T11:23:21.829Z,945.9
2017-10-11T11:24:30.049Z,945.9
2017-10-11T11:25:38.198Z,945.8
2017-10-11T11:26:46.097Z,945.9
2017-10-11T11:27:54.184Z,945.9
2017-10-11T11:29:02.278Z,945.9
2017-10-11T11:30:10.424Z,945.9
2017-10-11T11:31:18.502Z,945.8
2017-10-11T11:32:26.528Z,945.8
2017-10-11T11:33:34.624Z,945.8
2017-10-11T11:34:42.758Z,945.8
2017-10-11T11:35:50.792Z,945.8
2017-10-11T11:36:58.936Z,945.8
2017-10-11T11:38:06.962Z,945.8
2017-10-11T11:39:15.211Z,945.8
2017-10-11T11:40:23.134Z,945.8
2017-10-11T11:41:31.220Z,945.8
2017-10-11T11:42:39.364Z,945.7
2017-10-11T11:43:47.474Z,945.8
2017-10-11T11:44:55.503Z,945.7
2017-10-11T11:46:03.565Z,945.7
2017-10-11T11:47:11.657Z,945.8
2017-10-11T11:48:19.798Z,945.7
2017-10-11T11:49:27.827Z,945.7
2017-10-11T11:50:35.968Z,945.7
2017-10-11T11:51:43.998Z,945.7
2017-10-11T11:52:52.084Z,945.7
2017-10-11T11:54:00.240Z,945.7
2017-10-11T11:55:08.255Z,945.7
2017-10-11T11:56:16.362Z,945.7
2017-10-11T11:57:24.484Z,945.7
2017-10-11T11:58:32.517Z,945.7
2017-10-11T11:59:40.859Z,945.7
2017-10-11T12:00:48.689Z,945.6
2017-10-11T12:01:56.775Z,945.6
2017-10-11T12:03:04.857Z,945.6
2017-10-11T12:04:12.945Z,945.6
2017-10-11T12:05:21.152Z,945.5
2017-10-11T12:06:29.281Z,945.5
2017-10-11T12:07:37.206Z,945.6
2017-10-11T12:08:45.290Z,945.5
2017-10-11T12:09:53.378Z,945.5
2017-10-11T12:11:01.518Z,945.5
2017-10-11T12:12:09.547Z,945.4
2017-10-11T12:13:17.634Z,945.4
2017-10-11T12:14:25.721Z,945.4
2017-10-11T12:15:33.972Z,945.4
2017-10-11T12:16:42.048Z,945.4
2017-10-11T12:17:49.981Z,945.3
2017-10-11T12:18:58.068Z,945.4
2017-10-11T12:20:06.152Z,945.3
2017-10-11T12:21:14.250Z,945.3
2017-10-11T12:22:22.448Z,945.3
2017-10-11T12:23:30.416Z,945.3
2017-10-11T12:24:38.501Z,945.3
2017-10-11T12:25:46.589Z,945.3
2017-10-11T12:26:54.679Z,945.2
2017-10-11T12:28:02.817Z,945.3
2017-10-11T12:29:10.845Z,945.3
2017-10-11T12:30:18.931Z,945.3
2017-10-11T12:31:27.021Z,945.3
2017-10-11T12:32:35.106Z,945.3
2017-10-11T12:33:43.378Z,945.3
2017-10-11T12:34:51.440Z,945.3
2017-10-11T12:35:59.493Z,945.3
2017-10-11T12:37:07.586Z,945.3
2017-10-11T12:38:15.789Z,945.3
2017-10-11T12:39:23.807Z,945.3
2017-10-11T12:40:31.838Z,945.3
2017-10-11T12:41:39.948Z,945.3
2017-10-11T12:42:48.013Z,945.3
2017-10-11T12:43:56.106Z,945.2
2017-10-11T12:45:04.304Z,945.2
2017-10-11T12:46:12.272Z,945.2
2017-10-11T12:47:20.356Z,945.2
2017-10-11T12:48:28.440Z,945.2
2017-10-11T12:49:36.533Z,945.2
2017-10-11T12:50:44.735Z,945.2
2017-10-11T12:51:52.702Z,945.2
2017-10-11T12:53:00.786Z,945.2
2017-10-11T12:54:08.933Z,945.2
2017-10-11T12:55:16.960Z,945.1
2017-10-11T12:56:25.103Z,945.1
2017-10-11T12:57:33.131Z,945.2
2017-10-11T12:58:41.217Z,945.1
2017-10-11T12:59:49.301Z,945.1
2017-10-11T13:00:57.388Z,945.2
2017-10-11T13:02:05.625Z,945.2
2017-10-11T13:03:13.565Z,945.2
2017-10-11T13:04:21.648Z,945.1
2017-10-11T13:05:29.741Z,945.1
2017-10-11T13:06:37.999Z,945.1
2017-10-11T13:07:46.032Z,945.0
2017-10-11T13:08:53.997Z,945.0
2017-10-11T13:10:02.203Z,945.0
2017-10-11T13:11:10.170Z,945.0
2017-10-11T13:12:18.259Z,945.0
2017-10-11T13:13:26.466Z,945.0
2017-10-11T13:14:34.429Z,945.0
2017-10-11T13:15:42.516Z,945.1
2017-10-11T13:16:50.600Z,945.0
2017-10-11T13:17:58.684Z,945.1
2017-10-11T13:19:06.829Z,945.0
2017-10-11T13:20:15.040Z,945.0
2017-10-11T13:21:23.082Z,945.0
2017-10-11T13:22:31.032Z,945.0
2017-10-11T13:23:39.117Z,945.0
2017-10-11T13:24:47.266Z,945.1
2017-10-11T13:25:55.662Z,945.1
2017-10-11T13:27:03.687Z,945.1
2017-10-11T13:28:11.772Z,945.0
2017-10-11T13:29:19.881Z,945.0
2017-10-11T13:30:28.002Z,945.0
2017-10-11T13:31:36.029Z,945.0
2017-10-11T13:32:44.121Z,945.0
2017-10-11T13:33:52.202Z,945.0
2017-10-11T13:35:00.292Z,945.0
2017-10-11T13:36:08.431Z,945.0
2017-10-11T13:37:16.460Z,945.0
2017-10-11T13:38:24.643Z,945.0
2017-10-11T13:39:32.632Z,945.0
2017-10-11T13:40:40.805Z,945.0
2017-10-11T13:41:48.863Z,945.0
2017-10-11T13:42:56.900Z,945.0
2017-10-11T13:44:04.975Z,944.9
2017-10-11T13:45:13.064Z,945.0
2017-10-11T13:46:21.148Z,945.0
2017-10-11T13:47:29.290Z,944.9
2017-10-11T13:48:37.320Z,944.9
2017-10-11T13:49:45.407Z,944.9
2017-10-11T13:50:53.492Z,945.0
2017-10-11T13:52:01.581Z,944.9
2017-10-11T13:53:09.733Z,944.9
2017-10-11T13:54:17.765Z,944.9
2017-10-11T13:55:25.848Z,944.9
2017-10-11T13:56:34.019Z,944.9
2017-10-11T13:57:42.142Z,944.9
2017-10-11T13:58:50.164Z,944.9
2017-10-11T13:59:58.192Z,944.9
2017-10-11T14:01:06.280Z,944.9
2017-10-11T14:02:14.364Z,944.9
2017-10-11T14:03:22.458Z,944.8
2017-10-11T14:04:30.603Z,944.8
2017-10-11T14:05:38.682Z,944.9
2017-10-11T14:06:46.720Z,944.9
2017-10-11T14:07:54.806Z,944.8
2017-10-11T14:09:02.894Z,944.8
2017-10-11T14:10:11.201Z,944.8
2017-10-11T14:11:19.066Z,944.8
2017-10-11T14:12:27.154Z,944.8
2017-10-11T14:13:35.355Z,944.8
2017-10-11T14:14:43.486Z,944.7
2017-10-11T14:15:51.468Z,944.7
2017-10-11T14:16:59.500Z,944.7
2017-10-11T14:18:07.585Z,944.7
2017-10-11T14:19:15.849Z,944.7
2017-10-11T14:20:23.760Z,944.7
2017-10-11T14:21:32.162Z,944.7
2017-10-11T14:22:40.203Z,944.7
2017-10-11T14:23:48.289Z,944.7
2017-10-11T14:24:56.411Z,944.7
2017-10-11T14:26:04.477Z,944.6
2017-10-11T14:27:12.682Z,944.6
2017-10-11T14:28:20.665Z,944.6
2017-10-11T14:29:28.798Z,944.6
2017-10-11T14:30:36.828Z,944.6
2017-10-11T14:31:44.924Z,944.6
2017-10-11T14:32:53.139Z,944.6
2017-10-11T14:34:01.096Z,944.7
2017-10-11T14:35:09.186Z,944.7
2017-10-11T14:36:17.269Z,944.6
2017-10-11T14:37:25.356Z,944.6